This is the latest recevied weather packets stored in our database for station/object LRCV. If no packets are shown the sender has not sent any weather packets the latest 1 day(s).
| Time | Temp. | Humidity | Pressure | Rain* | Wind** | Luminosity | Snow |
|---|---|---|---|---|---|---|---|
| 1777990722 | 26.11° C | 28% | 1013 hPa | - | 4.02 m/s, 280° | - | - |
| 1777989821 | 26.11° C | 28% | 1013 hPa | - | 4.02 m/s, 280° | - | - |
| 1777988960 | 25° C | 28% | 1014 hPa | - | 1.34 m/s, 200° | - | - |
| 1777988022 | 25° C | 28% | 1014 hPa | - | 1.34 m/s, 200° | - | - |
| 1777987121 | 26.11° C | 30% | 1014 hPa | - | 2.24 m/s, 260° | - | - |
| 1777986221 | 26.11° C | 30% | 1014 hPa | - | 2.24 m/s, 260° | - | - |
| 1777983521 | 26.11° C | 28% | 1014 hPa | - | 3.13 m/s, 220° | - | - |
| 1777982631 | 26.11° C | 32% | 1015 hPa | - | 3.13 m/s, 270° | - | - |
| 1777981729 | 26.11° C | 32% | 1015 hPa | - | 3.13 m/s, 270° | - | - |
| 1777980852 | 26.11° C | 32% | 1015 hPa | - | 3.13 m/s, 270° | - | - |
| 1777979922 | 25° C | 36% | 1015 hPa | - | 3.13 m/s, 290° | - | - |
| 1777979022 | 25° C | 36% | 1015 hPa | - | 3.13 m/s, 290° | - | - |
| 1777976322 | 23.89° C | 41% | 1015 hPa | - | 3.13 m/s, 260° | - | - |
| 1777975422 | 23.89° C | 41% | 1015 hPa | - | 3.13 m/s, 260° | - | - |
| 1777974523 | 23.89° C | 39% | 1016 hPa | - | 2.68 m/s, 240° | - | - |
| 1777973621 | 23.89° C | 39% | 1016 hPa | - | 2.68 m/s, 240° | - | - |
| 1777970921 | 22.22° C | 41% | 1016 hPa | - | 1.34 m/s, 60° | - | - |
| 1777970022 | 22.22° C | 41% | 1016 hPa | - | 1.34 m/s, 60° | - | - |
| 1777967342 | 21.11° C | 43% | 1016 hPa | - | 1.34 m/s, 70° | - | - |
| 1777966421 | 21.11° C | 43% | 1016 hPa | - | 1.34 m/s, 70° | - | - |
| 1777965521 | 21.11° C | 43% | 1016 hPa | - | 0 m/s | - | - |
| 1777964621 | 21.11° C | 43% | 1016 hPa | - | 0 m/s | - | - |
| 1777960121 | 12.78° C | 77% | 1016 hPa | - | 2.24 m/s, 80° | - | - |
| 1777959222 | 12.78° C | 77% | 1016 hPa | - | 2.24 m/s, 80° | - | - |
| 1777952921 | 7.22° C | 93% | 1016 hPa | - | 2.24 m/s, 300° | - | - |
* Rain since midnight (hover to see other rain measurements)
** Current wind speed in m/s (hover to see current wind gust speed)